KFYM/FYM METAR and TAF weather

Enter ICAO airport designator
Station Type Date Time Source
KFYM METAR 2021/09/24 04:55 UTC NOAA

KFYM 240455Z AUTO 00000KT 10SM CLR 11/10 A3013 RMK A01


Station Type Date Time Source
KFYM Decoded METAR 2021/09/24 04:55 UTC NOAA

Station name not available
Sep 24, 2021 - 12:55 AM EDT / 2021.09.24 0455 UTC
Wind: Calm:0
Visibility: 10 mile(s):0
Sky conditions: clear
Temperature: 51 F (11 C)
Dew Point: 50 F (10 C)
Relative Humidity: 93%
Pressure (altimeter): 30.13 in. Hg (1020 hPa)
ob: KFYM 240455Z AUTO 00000KT 10SM CLR 11/10 A3013 RMK A01
cycle: 5

Station Type Date Time Source
KFYM TAF 2009/08/31 19:45 UTC NOAA

METAR KFYM 311945Z AUTO 01006KT 10SM CLR 26/11 A3009
RMK AO1 T02550111 $

Example: see airport list